createdAt,value
2023-10-25T00:03:47.262Z,12.41
2023-10-25T00:07:48.898Z,12.49
2023-10-25T00:11:51.256Z,12.43
2023-10-25T00:15:52.952Z,12.30
2023-10-25T00:19:54.542Z,12.44
2023-10-25T00:23:56.038Z,12.41
2023-10-25T00:27:57.603Z,12.51
2023-10-25T00:31:59.329Z,12.42
2023-10-25T00:36:00.928Z,12.37
2023-10-25T00:40:02.605Z,12.44
2023-10-25T00:44:04.767Z,12.51
2023-10-25T00:48:06.450Z,12.54
2023-10-25T00:52:08.488Z,11.96
2023-10-25T00:56:12.439Z,11.88
2023-10-25T01:00:14.478Z,12.24
2023-10-25T01:04:16.914Z,12.33
2023-10-25T01:08:20.761Z,12.46
2023-10-25T01:12:22.654Z,12.26
2023-10-25T01:16:24.370Z,12.53
2023-10-25T01:20:25.939Z,11.93
2023-10-25T01:24:27.464Z,12.29
2023-10-25T01:28:29.021Z,12.18
2023-10-25T01:32:30.563Z,12.09
2023-10-25T01:36:32.056Z,12.06
2023-10-25T01:40:33.580Z,11.93
2023-10-25T01:44:35.081Z,11.67
2023-10-25T01:48:39.723Z,11.82
2023-10-25T01:52:41.339Z,11.84
2023-10-25T01:56:43.886Z,11.82
2023-10-25T02:00:46.314Z,11.56
2023-10-25T02:04:47.872Z,11.50
2023-10-25T02:08:49.420Z,11.29
2023-10-25T02:12:51.321Z,11.18
2023-10-25T02:16:53.296Z,11.13
2023-10-25T02:20:54.934Z,10.91
2023-10-25T02:24:56.504Z,11.05
2023-10-25T02:29:00.185Z,10.67
2023-10-25T02:33:01.699Z,10.88
2023-10-25T02:37:03.701Z,11.15
2023-10-25T02:41:05.369Z,11.36
2023-10-25T02:45:07.380Z,10.94
2023-10-25T02:49:08.894Z,10.80
2023-10-25T02:53:10.640Z,11.11
2023-10-25T02:57:12.462Z,11.34
2023-10-25T03:01:23.290Z,11.51
2023-10-25T03:05:24.822Z,11.58
2023-10-25T03:09:26.895Z,11.58
2023-10-25T03:13:28.529Z,11.61
2023-10-25T03:17:32.729Z,11.45
2023-10-25T03:21:34.634Z,11.61
2023-10-25T03:25:36.203Z,11.27
2023-10-25T03:29:38.169Z,11.16
2023-10-25T03:33:39.793Z,11.10
2023-10-25T03:37:41.326Z,10.90
2023-10-25T03:41:44.360Z,10.78
2023-10-25T03:45:45.982Z,10.84
2023-10-25T03:49:48.109Z,10.75
2023-10-25T03:53:49.561Z,10.50
2023-10-25T03:57:51.171Z,10.47
2023-10-25T04:01:52.835Z,10.78
2023-10-25T04:05:55.096Z,10.78
2023-10-25T04:09:56.659Z,10.68
2023-10-25T04:13:58.166Z,10.74
2023-10-25T04:17:59.980Z,10.70
2023-10-25T04:22:01.808Z,10.59
2023-10-25T04:26:07.903Z,10.18
2023-10-25T04:30:10.251Z,10.60
2023-10-25T04:34:11.911Z,10.56
2023-10-25T04:38:13.471Z,10.63
2023-10-25T04:42:14.964Z,10.66
2023-10-25T04:46:16.952Z,10.64
2023-10-25T04:50:20.929Z,10.55
2023-10-25T04:54:22.475Z,10.58
2023-10-25T04:58:26.058Z,10.58
2023-10-25T05:02:27.634Z,10.53
2023-10-25T05:06:29.779Z,10.58
2023-10-25T05:10:31.877Z,10.68
2023-10-25T05:14:34.486Z,10.70
2023-10-25T05:18:36.552Z,10.66
2023-10-25T05:22:39.795Z,10.65
2023-10-25T05:26:41.717Z,10.62
2023-10-25T05:30:43.469Z,10.61
2023-10-25T05:34:45.311Z,10.67
2023-10-25T05:38:47.066Z,10.59
2023-10-25T05:42:49.400Z,10.49
2023-10-25T05:46:51.885Z,10.46
2023-10-25T05:50:54.588Z,10.37
2023-10-25T05:54:56.373Z,10.39
2023-10-25T05:58:58.154Z,10.26
2023-10-25T06:03:01.776Z,10.21
2023-10-25T06:07:03.676Z,10.09
2023-10-25T06:11:06.329Z,9.76
2023-10-25T06:15:08.226Z,9.68
2023-10-25T06:19:10.225Z,10.13
2023-10-25T06:23:12.635Z,9.91
2023-10-25T06:27:14.305Z,9.90
2023-10-25T06:31:15.877Z,9.37
2023-10-25T06:35:17.451Z,9.36
2023-10-25T06:39:19.316Z,9.32
2023-10-25T06:43:21.292Z,9.92
2023-10-25T06:47:23.049Z,10.21
2023-10-25T06:51:25.138Z,9.68
2023-10-25T06:55:27.018Z,10.10
2023-10-25T06:59:28.782Z,10.03
2023-10-25T07:03:35.401Z,10.49
2023-10-25T07:07:39.089Z,10.79
2023-10-25T07:11:41.168Z,10.53
2023-10-25T07:15:42.776Z,11.01
2023-10-25T07:19:47.164Z,10.94
2023-10-25T07:23:48.663Z,11.00
2023-10-25T07:27:50.187Z,10.92
2023-10-25T07:31:52.882Z,11.15
2023-10-25T07:35:54.491Z,11.36
2023-10-25T07:39:56.041Z,11.48
2023-10-25T07:43:57.581Z,11.41
2023-10-25T07:47:59.098Z,11.53
2023-10-25T07:52:00.579Z,10.44
2023-10-25T08:00:10.822Z,11.38
2023-10-25T08:04:15.328Z,11.29
2023-10-25T08:08:18.356Z,11.62
2023-10-25T08:12:19.941Z,11.03
2023-10-25T08:16:21.504Z,11.16
2023-10-25T08:20:23.222Z,11.91
2023-10-25T08:24:27.754Z,11.31
2023-10-25T08:28:29.274Z,10.95
2023-10-25T08:32:31.122Z,10.98
2023-10-25T08:36:32.965Z,10.68
2023-10-25T08:40:34.827Z,11.36
2023-10-25T08:44:40.352Z,11.43
2023-10-25T08:48:43.449Z,11.86
2023-10-25T08:52:46.224Z,10.64
2023-10-25T08:56:47.844Z,11.18
2023-10-25T09:00:50.872Z,11.49
2023-10-25T09:05:05.106Z,11.42
2023-10-25T09:09:07.728Z,11.26
2023-10-25T09:13:14.900Z,11.56
2023-10-25T09:17:16.680Z,11.39
2023-10-25T09:21:27.083Z,11.47
2023-10-25T09:25:31.635Z,11.27
2023-10-25T09:29:36.831Z,10.75
2023-10-25T09:33:38.433Z,11.33
2023-10-25T09:37:40.177Z,11.08
2023-10-25T09:41:43.312Z,11.42
2023-10-25T09:45:50.564Z,11.41
2023-10-25T09:49:59.480Z,11.60
2023-10-25T09:54:10.022Z,10.97
2023-10-25T09:58:12.518Z,11.55
2023-10-25T10:02:28.107Z,11.57
2023-10-25T10:06:55.067Z,11.01
2023-10-25T10:11:03.257Z,11.86
2023-10-25T10:15:05.235Z,11.40
2023-10-25T10:19:12.598Z,12.04
2023-10-25T10:23:17.540Z,11.89
2023-10-25T10:27:27.495Z,12.02
2023-10-25T10:31:29.032Z,12.03
2023-10-25T10:35:30.643Z,11.34
2023-10-25T10:39:32.214Z,11.84
2023-10-25T10:43:33.794Z,11.77
2023-10-25T10:47:59.036Z,12.28
2023-10-25T10:52:04.002Z,12.21
2023-10-25T10:56:05.570Z,12.19
2023-10-25T11:00:09.561Z,11.88
2023-10-25T11:04:11.207Z,11.80
2023-10-25T11:08:14.636Z,12.12
2023-10-25T11:12:16.465Z,12.03
2023-10-25T11:16:18.455Z,12.35
2023-10-25T11:20:19.969Z,12.58
2023-10-25T11:24:21.508Z,12.70
2023-10-25T11:28:24.481Z,12.68
2023-10-25T11:32:26.034Z,11.91
2023-10-25T11:36:30.383Z,12.29
2023-10-25T11:40:46.743Z,12.75
2023-10-25T11:44:48.372Z,12.47
2023-10-25T11:48:51.078Z,12.70
2023-10-25T11:52:52.541Z,12.92
2023-10-25T11:56:54.043Z,12.97
2023-10-25T12:00:56.266Z,12.53
2023-10-25T12:04:58.548Z,12.80
2023-10-25T12:09:00.757Z,12.85
2023-10-25T12:13:02.363Z,12.94
2023-10-25T12:17:06.244Z,12.32
2023-10-25T12:21:09.485Z,12.52
2023-10-25T12:25:11.169Z,13.07
2023-10-25T12:29:12.629Z,12.93
2023-10-25T12:33:14.172Z,11.45
2023-10-25T12:37:15.689Z,12.57
2023-10-25T12:41:17.168Z,11.80
2023-10-25T12:45:18.721Z,11.76
2023-10-25T12:49:20.245Z,11.92
2023-10-25T12:53:21.771Z,12.37
2023-10-25T12:57:23.237Z,11.93
2023-10-25T13:01:24.865Z,12.45
2023-10-25T13:05:26.431Z,12.18
2023-10-25T13:09:27.933Z,11.80
2023-10-25T13:13:30.058Z,12.38
2023-10-25T13:17:31.935Z,11.39
2023-10-25T13:21:34.520Z,10.71
2023-10-25T13:25:36.105Z,11.53
2023-10-25T13:29:39.341Z,11.80
2023-10-25T13:33:41.030Z,12.00
2023-10-25T13:37:42.747Z,11.88
2023-10-25T13:41:45.037Z,12.60
2023-10-25T13:45:46.772Z,12.75
2023-10-25T13:49:48.330Z,12.76
2023-10-25T13:53:49.811Z,11.83
2023-10-25T13:57:51.330Z,11.37
2023-10-25T14:01:52.791Z,11.58
2023-10-25T14:05:54.349Z,11.06
2023-10-25T14:09:55.874Z,10.69
2023-10-25T14:13:59.049Z,10.33
2023-10-25T14:18:00.985Z,11.59
2023-10-25T14:22:03.660Z,11.51
2023-10-25T14:26:06.440Z,10.49
2023-10-25T14:30:09.222Z,11.06
2023-10-25T14:34:10.791Z,10.58
2023-10-25T14:38:12.402Z,10.28
2023-10-25T14:42:13.983Z,10.56
2023-10-25T14:46:20.018Z,11.51
2023-10-25T14:50:21.793Z,10.84
2023-10-25T14:54:23.341Z,10.00
2023-10-25T14:58:24.815Z,10.31
2023-10-25T15:02:26.327Z,10.22
2023-10-25T15:06:29.679Z,10.47
2023-10-25T15:10:35.767Z,9.79
2023-10-25T15:14:46.690Z,10.09
2023-10-25T15:18:54.369Z,10.02
2023-10-25T15:22:55.969Z,9.95
2023-10-25T15:26:58.497Z,9.71
2023-10-25T15:31:02.213Z,9.52
2023-10-25T15:35:03.980Z,10.25
2023-10-25T15:39:10.412Z,10.77
2023-10-25T15:43:12.287Z,10.45
2023-10-25T15:47:14.804Z,11.23
2023-10-25T15:51:17.068Z,11.67
2023-10-25T15:55:18.630Z,11.75
2023-10-25T15:59:21.016Z,11.60
2023-10-25T16:03:22.585Z,11.51
2023-10-25T16:07:24.239Z,11.38
2023-10-25T16:11:25.850Z,11.32
2023-10-25T16:15:27.421Z,10.42
2023-10-25T16:19:31.086Z,10.23
2023-10-25T16:23:43.254Z,9.32
2023-10-25T16:27:45.265Z,9.61
2023-10-25T16:31:46.783Z,9.34
2023-10-25T16:35:48.313Z,9.68
2023-10-25T16:39:49.793Z,9.46
2023-10-25T16:43:51.349Z,9.66
2023-10-25T16:47:52.849Z,10.14
2023-10-25T16:51:54.348Z,9.86
2023-10-25T16:55:55.867Z,9.61
2023-10-25T16:59:57.463Z,8.92
2023-10-25T17:03:59.148Z,9.22
2023-10-25T17:08:00.816Z,9.18
2023-10-25T17:12:02.639Z,9.69
2023-10-25T17:16:04.588Z,10.04
2023-10-25T17:20:07.013Z,9.95
2023-10-25T17:24:11.241Z,10.01
2023-10-25T17:28:12.820Z,10.05
2023-10-25T17:32:14.631Z,9.89
2023-10-25T17:36:16.376Z,9.96
2023-10-25T17:40:17.904Z,9.71
2023-10-25T17:44:21.259Z,9.17
2023-10-25T17:48:23.552Z,8.74
2023-10-25T17:52:35.352Z,9.67
2023-10-25T17:56:45.027Z,8.95
2023-10-25T18:00:48.109Z,7.99
2023-10-25T18:04:49.622Z,8.38
2023-10-25T18:08:51.425Z,7.67
2023-10-25T18:12:52.901Z,9.38
2023-10-25T18:16:54.620Z,9.01
2023-10-25T18:20:58.157Z,9.29
2023-10-25T18:24:59.897Z,8.54
2023-10-25T18:29:01.373Z,9.00
2023-10-25T18:33:02.957Z,9.28
2023-10-25T18:37:04.900Z,9.72
2023-10-25T18:41:06.529Z,10.28
2023-10-25T18:45:08.517Z,10.08
2023-10-25T18:49:10.180Z,10.37
2023-10-25T18:53:11.620Z,10.22
2023-10-25T18:57:13.287Z,10.23
2023-10-25T19:01:17.380Z,9.16
2023-10-25T19:06:29.710Z,9.03
2023-10-25T19:09:49.512Z,10.32
2023-10-25T19:13:53.979Z,10.31
2023-10-25T19:17:55.688Z,10.78
2023-10-25T19:21:57.305Z,10.77
2023-10-25T19:25:58.964Z,10.76
2023-10-25T19:30:01.535Z,10.76
2023-10-25T19:34:04.169Z,10.73
2023-10-25T19:38:05.709Z,10.71
2023-10-25T19:42:07.323Z,10.62
2023-10-25T19:46:10.569Z,10.38
2023-10-25T19:50:12.293Z,10.65
2023-10-25T19:54:14.276Z,10.77
2023-10-25T19:58:15.786Z,10.76
2023-10-25T20:02:17.284Z,10.61
2023-10-25T20:06:19.595Z,10.43
2023-10-25T20:10:21.154Z,10.14
2023-10-25T20:14:22.818Z,10.24
2023-10-25T20:18:24.642Z,10.20
2023-10-25T20:22:26.254Z,9.28
2023-10-25T20:26:34.427Z,10.13
2023-10-25T20:30:36.884Z,10.10
2023-10-25T20:34:38.351Z,10.71
2023-10-25T20:38:39.818Z,10.14
2023-10-25T20:42:41.357Z,10.28
2023-10-25T20:46:46.176Z,10.11
2023-10-25T20:50:55.870Z,9.15
2023-10-25T20:54:57.986Z,10.46
2023-10-25T20:58:59.547Z,10.36
2023-10-25T21:03:01.121Z,10.64
2023-10-25T21:07:02.775Z,9.40
2023-10-25T21:11:04.656Z,9.66
2023-10-25T21:15:06.908Z,9.40
2023-10-25T21:19:08.578Z,9.92
2023-10-25T21:23:10.151Z,9.19
2023-10-25T21:27:11.763Z,9.57
2023-10-25T21:31:13.250Z,9.56
2023-10-25T21:35:14.791Z,9.52
2023-10-25T21:39:16.400Z,9.02
2023-10-25T21:43:17.987Z,9.12
2023-10-25T21:47:19.456Z,9.12
2023-10-25T21:51:21.051Z,9.65
2023-10-25T21:55:22.577Z,9.19
2023-10-25T21:59:51.001Z,9.37
2023-10-25T22:03:45.791Z,10.21
2023-10-25T22:07:47.317Z,9.44
2023-10-25T22:11:50.570Z,9.21
2023-10-25T22:15:52.075Z,9.21
2023-10-25T22:19:53.575Z,9.27
2023-10-25T22:23:55.078Z,9.52
2023-10-25T22:27:56.891Z,10.18
2023-10-25T22:31:58.353Z,10.03
2023-10-25T22:36:04.065Z,10.15
2023-10-25T22:40:06.437Z,10.39
2023-10-25T22:44:07.896Z,9.30
2023-10-25T22:48:09.546Z,9.58
2023-10-25T22:52:11.177Z,9.95
2023-10-25T22:56:14.079Z,10.21
2023-10-25T23:00:15.979Z,9.50
2023-10-25T23:04:17.613Z,8.94
2023-10-25T23:08:19.158Z,9.57
2023-10-25T23:12:21.428Z,9.72
2023-10-25T23:16:23.162Z,9.91
2023-10-25T23:20:24.652Z,9.65
2023-10-25T23:24:26.150Z,9.50
2023-10-25T23:28:27.733Z,9.35
2023-10-25T23:32:29.310Z,9.59
2023-10-25T23:36:30.824Z,9.60
2023-10-25T23:40:32.310Z,9.48
2023-10-25T23:44:33.948Z,9.34
2023-10-25T23:48:35.604Z,9.54
2023-10-25T23:52:38.340Z,9.21
2023-10-25T23:56:47.872Z,9.74
